Aeroporto :
LOGIN :

Iscrizione | Disclaimer

   EN    FR    IT 

 










Sommario :    VFR   VFR Marginale   IFR   IFR Intensivo   IFR Molto Intensivo
Visibilità : 
Base nubi : 
>= 8 km
>= 3000ft
5 / 8 km
1000 / 3000 ft
1500m / 5 km
500 / 1000 ft
800 / 1500m
200 / 500 ft
< 800m
< 200 ft
Simboli :   Temporali  Nebbia  Neve Forte  Precipitazioni Forti  Vento > 20 kt
SIGMETs :   Varie  Temporali  Ghiacco  Turbolenza  Onda orograficha  Ceneri Vulcaniche






- Altitudine del aeroporto : 302 ft
- Codice IATA : CGN


EDDK - Cologne Bonn

ULTIMO METAR :
  • 061050Z 14011KT 9999 -RA FEW032 BKN038 02/01 Q1014 NOSIG

METARs OBSOLETI :
  • 061020Z 14011KT 9999 -RA FEW042 BKN045 02/01 Q1014 RERA NOSIG
  • 060950Z 14012KT 9999 RA BKN045 02/00 Q1015 BECMG NSW
  • 060920Z 14011KT 9999 -RA FEW042 BKN047 02/M00 Q1015 TEMPO RA
  • 060850Z 14010KT 9999 -RA FEW037 BKN047 01/M01 Q1015 NOSIG
  • 060820Z 15011KT 9999 -RA FEW037 BKN040 01/M01 Q1015 TEMPO RA

TAF AMD TAF EDDK
Valido dal 06 a 06 ore il 07 a 12 ore UTC


060616Z 0606/0712 18010KT 9999 SCT020
TEMPO 0606/0620 4000 RA BKN014
BECMG 0623/0702 25012KT



MetMap, La meteo Aeronautica in un colpo d'occhio ! - Copyright ORBIFLY Dicembre 2007 - Disclaimer

ORBIFLY MET'MAP TEAM :

Programmazione e sviluppo : Alexandra Zaïnal
Concezione : Baudouin d'Aumeries
Aiuto per la programmazione : Marc-Olivier Méhu
Supporto tecnico e logistico : Manuel Goepfert
Aiuto per la traduzione : Arnaldo La Scala

Contatto : metmap@orbifly.com




FONTI E CREDITI :

   NOAA